sensor_id;sensor_type;location;lat;lon;timestamp;P1;durP1;ratioP1;P2;durP2;ratioP2
62584;SDS011;48643;51.670;5.808;2023-11-25T00:00:54;6.30;;;1.67;;
62584;SDS011;48643;51.670;5.808;2023-11-25T00:03:22;7.90;;;1.70;;
62584;SDS011;48643;51.670;5.808;2023-11-25T00:05:50;6.93;;;1.80;;
62584;SDS011;48643;51.670;5.808;2023-11-25T00:08:17;5.82;;;1.58;;
62584;SDS011;48643;51.670;5.808;2023-11-25T00:10:45;3.92;;;1.35;;
62584;SDS011;48643;51.670;5.808;2023-11-25T00:13:13;4.38;;;1.50;;
62584;SDS011;48643;51.670;5.808;2023-11-25T00:15:41;6.32;;;2.00;;
62584;SDS011;48643;51.670;5.808;2023-11-25T00:18:09;8.23;;;2.00;;
62584;SDS011;48643;51.670;5.808;2023-11-25T00:20:37;5.38;;;1.60;;
62584;SDS011;48643;51.670;5.808;2023-11-25T00:23:04;6.97;;;1.77;;
62584;SDS011;48643;51.670;5.808;2023-11-25T00:25:31;5.60;;;1.85;;
62584;SDS011;48643;51.670;5.808;2023-11-25T00:27:58;8.32;;;1.70;;
62584;SDS011;48643;51.670;5.808;2023-11-25T00:30:26;5.40;;;1.85;;
62584;SDS011;48643;51.670;5.808;2023-11-25T00:32:53;5.55;;;1.73;;
62584;SDS011;48643;51.670;5.808;2023-11-25T00:35:21;4.80;;;1.63;;
62584;SDS011;48643;51.670;5.808;2023-11-25T00:37:48;4.53;;;1.88;;
62584;SDS011;48643;51.670;5.808;2023-11-25T00:40:15;3.85;;;1.30;;
62584;SDS011;48643;51.670;5.808;2023-11-25T00:42:43;6.80;;;1.65;;
62584;SDS011;48643;51.670;5.808;2023-11-25T00:45:10;5.70;;;1.83;;
62584;SDS011;48643;51.670;5.808;2023-11-25T00:47:38;5.07;;;1.65;;
62584;SDS011;48643;51.670;5.808;2023-11-25T00:52:38;5.82;;;1.63;;
62584;SDS011;48643;51.670;5.808;2023-11-25T00:55:05;7.45;;;1.90;;
62584;SDS011;48643;51.670;5.808;2023-11-25T00:57:34;8.38;;;1.73;;
62584;SDS011;48643;51.670;5.808;2023-11-25T01:00:01;9.35;;;1.70;;
62584;SDS011;48643;51.670;5.808;2023-11-25T01:02:32;6.47;;;2.05;;
62584;SDS011;48643;51.670;5.808;2023-11-25T01:04:59;5.60;;;1.90;;
62584;SDS011;48643;51.670;5.808;2023-11-25T01:07:26;6.20;;;1.80;;
62584;SDS011;48643;51.670;5.808;2023-11-25T01:09:54;9.63;;;1.85;;
62584;SDS011;48643;51.670;5.808;2023-11-25T01:12:21;7.75;;;1.90;;
62584;SDS011;48643;51.670;5.808;2023-11-25T01:14:49;6.25;;;1.85;;
62584;SDS011;48643;51.670;5.808;2023-11-25T01:17:16;7.63;;;2.20;;
62584;SDS011;48643;51.670;5.808;2023-11-25T01:19:43;6.38;;;1.65;;
62584;SDS011;48643;51.670;5.808;2023-11-25T01:22:10;6.95;;;1.90;;
62584;SDS011;48643;51.670;5.808;2023-11-25T01:24:37;5.63;;;1.73;;
62584;SDS011;48643;51.670;5.808;2023-11-25T01:27:04;5.60;;;1.75;;
62584;SDS011;48643;51.670;5.808;2023-11-25T01:29:33;6.85;;;1.83;;
62584;SDS011;48643;51.670;5.808;2023-11-25T01:32:01;5.43;;;1.52;;
62584;SDS011;48643;51.670;5.808;2023-11-25T01:34:28;9.93;;;1.80;;
62584;SDS011;48643;51.670;5.808;2023-11-25T01:36:55;11.18;;;2.22;;
62584;SDS011;48643;51.670;5.808;2023-11-25T01:39:22;9.90;;;2.00;;
62584;SDS011;48643;51.670;5.808;2023-11-25T01:41:51;5.13;;;1.92;;
62584;SDS011;48643;51.670;5.808;2023-11-25T01:44:18;8.52;;;1.90;;
62584;SDS011;48643;51.670;5.808;2023-11-25T01:46:45;6.85;;;1.75;;
62584;SDS011;48643;51.670;5.808;2023-11-25T01:49:14;6.50;;;1.80;;
62584;SDS011;48643;51.670;5.808;2023-11-25T01:51:42;8.68;;;1.83;;
62584;SDS011;48643;51.670;5.808;2023-11-25T01:54:14;4.93;;;1.80;;
62584;SDS011;48643;51.670;5.808;2023-11-25T01:56:43;9.07;;;2.05;;
62584;SDS011;48643;51.670;5.808;2023-11-25T01:59:16;8.80;;;1.67;;
62584;SDS011;48643;51.670;5.808;2023-11-25T02:01:45;9.75;;;1.88;;
62584;SDS011;48643;51.670;5.808;2023-11-25T02:04:12;13.10;;;2.00;;
62584;SDS011;48643;51.670;5.808;2023-11-25T02:06:40;9.70;;;1.95;;
62584;SDS011;48643;51.670;5.808;2023-11-25T02:09:08;7.05;;;1.88;;
62584;SDS011;48643;51.670;5.808;2023-11-25T02:11:54;9.45;;;2.03;;
62584;SDS011;48643;51.670;5.808;2023-11-25T02:14:22;7.15;;;2.00;;
62584;SDS011;48643;51.670;5.808;2023-11-25T02:16:49;3.83;;;1.30;;
62584;SDS011;48643;51.670;5.808;2023-11-25T02:19:18;7.43;;;1.80;;
62584;SDS011;48643;51.670;5.808;2023-11-25T02:21:51;9.13;;;1.90;;
62584;SDS011;48643;51.670;5.808;2023-11-25T02:24:19;8.25;;;2.28;;
62584;SDS011;48643;51.670;5.808;2023-11-25T02:26:47;7.88;;;1.73;;
62584;SDS011;48643;51.670;5.808;2023-11-25T02:29:14;7.03;;;1.88;;
62584;SDS011;48643;51.670;5.808;2023-11-25T02:31:41;6.70;;;1.77;;
62584;SDS011;48643;51.670;5.808;2023-11-25T02:34:09;9.05;;;1.90;;
62584;SDS011;48643;51.670;5.808;2023-11-25T02:36:36;7.45;;;1.90;;
62584;SDS011;48643;51.670;5.808;2023-11-25T02:39:04;7.45;;;2.42;;
62584;SDS011;48643;51.670;5.808;2023-11-25T02:41:32;7.97;;;2.03;;
62584;SDS011;48643;51.670;5.808;2023-11-25T02:44:00;11.13;;;2.15;;
62584;SDS011;48643;51.670;5.808;2023-11-25T02:46:28;6.78;;;1.83;;
62584;SDS011;48643;51.670;5.808;2023-11-25T02:48:54;5.78;;;1.63;;
62584;SDS011;48643;51.670;5.808;2023-11-25T02:51:21;6.72;;;1.90;;
62584;SDS011;48643;51.670;5.808;2023-11-25T02:53:48;6.00;;;1.60;;
62584;SDS011;48643;51.670;5.808;2023-11-25T02:56:16;10.63;;;2.08;;
62584;SDS011;48643;51.670;5.808;2023-11-25T02:58:43;7.22;;;1.77;;
62584;SDS011;48643;51.670;5.808;2023-11-25T03:01:10;4.93;;;1.73;;
62584;SDS011;48643;51.670;5.808;2023-11-25T03:03:41;9.30;;;1.95;;
62584;SDS011;48643;51.670;5.808;2023-11-25T03:06:15;5.03;;;1.52;;
62584;SDS011;48643;51.670;5.808;2023-11-25T03:08:48;5.88;;;1.73;;
62584;SDS011;48643;51.670;5.808;2023-11-25T03:11:19;9.32;;;1.90;;
62584;SDS011;48643;51.670;5.808;2023-11-25T03:13:47;4.72;;;1.52;;
62584;SDS011;48643;51.670;5.808;2023-11-25T03:16:15;7.30;;;1.50;;
62584;SDS011;48643;51.670;5.808;2023-11-25T03:18:51;6.97;;;1.70;;
62584;SDS011;48643;51.670;5.808;2023-11-25T03:21:19;8.02;;;1.63;;
62584;SDS011;48643;51.670;5.808;2023-11-25T03:23:46;10.02;;;1.70;;
62584;SDS011;48643;51.670;5.808;2023-11-25T03:26:14;6.82;;;1.90;;
62584;SDS011;48643;51.670;5.808;2023-11-25T03:28:41;8.05;;;1.98;;
62584;SDS011;48643;51.670;5.808;2023-11-25T03:31:09;8.25;;;1.70;;
62584;SDS011;48643;51.670;5.808;2023-11-25T03:33:36;6.40;;;1.77;;
62584;SDS011;48643;51.670;5.808;2023-11-25T03:36:04;8.48;;;1.90;;
62584;SDS011;48643;51.670;5.808;2023-11-25T03:38:31;8.15;;;1.70;;
62584;SDS011;48643;51.670;5.808;2023-11-25T03:40:58;8.85;;;1.75;;
62584;SDS011;48643;51.670;5.808;2023-11-25T03:43:25;7.60;;;1.90;;
62584;SDS011;48643;51.670;5.808;2023-11-25T03:45:52;7.60;;;2.00;;
62584;SDS011;48643;51.670;5.808;2023-11-25T03:48:19;10.07;;;1.88;;
62584;SDS011;48643;51.670;5.808;2023-11-25T03:50:46;9.63;;;2.13;;
62584;SDS011;48643;51.670;5.808;2023-11-25T03:53:13;8.23;;;1.80;;
62584;SDS011;48643;51.670;5.808;2023-11-25T03:55:39;6.88;;;1.70;;
62584;SDS011;48643;51.670;5.808;2023-11-25T03:58:07;6.60;;;1.45;;
62584;SDS011;48643;51.670;5.808;2023-11-25T04:00:33;9.23;;;2.22;;
62584;SDS011;48643;51.670;5.808;2023-11-25T04:03:00;6.78;;;1.63;;
62584;SDS011;48643;51.670;5.808;2023-11-25T04:05:30;8.30;;;1.75;;
62584;SDS011;48643;51.670;5.808;2023-11-25T04:07:57;8.88;;;2.05;;
62584;SDS011;48643;51.670;5.808;2023-11-25T04:10:25;10.05;;;1.88;;
62584;SDS011;48643;51.670;5.808;2023-11-25T04:12:53;7.18;;;2.10;;
62584;SDS011;48643;51.670;5.808;2023-11-25T04:15:23;9.18;;;1.95;;
62584;SDS011;48643;51.670;5.808;2023-11-25T04:17:50;9.18;;;2.20;;
62584;SDS011;48643;51.670;5.808;2023-11-25T04:20:18;6.35;;;1.80;;
62584;SDS011;48643;51.670;5.808;2023-11-25T04:22:57;12.02;;;1.88;;
62584;SDS011;48643;51.670;5.808;2023-11-25T04:25:26;5.88;;;1.55;;
62584;SDS011;48643;51.670;5.808;2023-11-25T04:27:53;10.82;;;1.98;;
62584;SDS011;48643;51.670;5.808;2023-11-25T04:30:20;11.07;;;1.75;;
62584;SDS011;48643;51.670;5.808;2023-11-25T04:32:47;8.13;;;1.90;;
62584;SDS011;48643;51.670;5.808;2023-11-25T04:35:15;9.80;;;2.00;;
62584;SDS011;48643;51.670;5.808;2023-11-25T04:37:43;4.32;;;1.45;;
62584;SDS011;48643;51.670;5.808;2023-11-25T04:40:12;7.00;;;1.88;;
62584;SDS011;48643;51.670;5.808;2023-11-25T04:42:40;6.85;;;1.80;;
62584;SDS011;48643;51.670;5.808;2023-11-25T04:45:07;8.05;;;1.83;;
62584;SDS011;48643;51.670;5.808;2023-11-25T04:47:45;8.70;;;1.85;;
62584;SDS011;48643;51.670;5.808;2023-11-25T04:50:14;6.50;;;2.00;;
62584;SDS011;48643;51.670;5.808;2023-11-25T04:52:43;7.53;;;2.13;;
62584;SDS011;48643;51.670;5.808;2023-11-25T04:55:11;7.55;;;1.80;;
62584;SDS011;48643;51.670;5.808;2023-11-25T04:57:42;8.27;;;1.90;;
62584;SDS011;48643;51.670;5.808;2023-11-25T05:00:11;7.93;;;1.77;;
62584;SDS011;48643;51.670;5.808;2023-11-25T05:05:11;9.23;;;1.75;;
62584;SDS011;48643;51.670;5.808;2023-11-25T05:07:39;11.37;;;2.20;;
62584;SDS011;48643;51.670;5.808;2023-11-25T05:10:07;9.50;;;1.70;;
62584;SDS011;48643;51.670;5.808;2023-11-25T05:12:36;6.68;;;2.03;;
62584;SDS011;48643;51.670;5.808;2023-11-25T05:15:04;8.30;;;2.03;;
62584;SDS011;48643;51.670;5.808;2023-11-25T05:17:32;11.23;;;2.05;;
62584;SDS011;48643;51.670;5.808;2023-11-25T05:19:59;8.95;;;2.00;;
62584;SDS011;48643;51.670;5.808;2023-11-25T05:22:26;8.45;;;2.03;;
62584;SDS011;48643;51.670;5.808;2023-11-25T05:24:54;7.97;;;1.73;;
62584;SDS011;48643;51.670;5.808;2023-11-25T05:27:21;9.20;;;1.73;;
62584;SDS011;48643;51.670;5.808;2023-11-25T05:29:49;7.65;;;1.80;;
62584;SDS011;48643;51.670;5.808;2023-11-25T05:32:16;11.07;;;2.03;;
62584;SDS011;48643;51.670;5.808;2023-11-25T05:34:43;8.07;;;1.83;;
62584;SDS011;48643;51.670;5.808;2023-11-25T05:37:11;10.68;;;2.33;;
62584;SDS011;48643;51.670;5.808;2023-11-25T05:39:39;7.50;;;2.08;;
62584;SDS011;48643;51.670;5.808;2023-11-25T05:42:07;5.07;;;1.77;;
62584;SDS011;48643;51.670;5.808;2023-11-25T05:44:34;5.93;;;1.65;;
62584;SDS011;48643;51.670;5.808;2023-11-25T05:47:01;8.13;;;1.80;;
62584;SDS011;48643;51.670;5.808;2023-11-25T05:49:29;12.77;;;2.00;;
62584;SDS011;48643;51.670;5.808;2023-11-25T05:51:56;7.40;;;1.80;;
62584;SDS011;48643;51.670;5.808;2023-11-25T05:54:26;10.65;;;2.10;;
62584;SDS011;48643;51.670;5.808;2023-11-25T05:56:54;6.53;;;1.70;;
62584;SDS011;48643;51.670;5.808;2023-11-25T05:59:20;9.55;;;2.00;;
62584;SDS011;48643;51.670;5.808;2023-11-25T06:01:48;4.63;;;1.25;;
62584;SDS011;48643;51.670;5.808;2023-11-25T06:04:16;7.28;;;1.60;;
62584;SDS011;48643;51.670;5.808;2023-11-25T06:06:47;10.07;;;1.92;;
62584;SDS011;48643;51.670;5.808;2023-11-25T06:09:14;7.53;;;1.38;;
62584;SDS011;48643;51.670;5.808;2023-11-25T06:11:41;5.88;;;1.38;;
62584;SDS011;48643;51.670;5.808;2023-11-25T06:14:08;5.72;;;1.50;;
62584;SDS011;48643;51.670;5.808;2023-11-25T06:16:39;5.13;;;1.33;;
62584;SDS011;48643;51.670;5.808;2023-11-25T06:19:09;5.00;;;1.35;;
62584;SDS011;48643;51.670;5.808;2023-11-25T06:21:37;6.07;;;1.60;;
62584;SDS011;48643;51.670;5.808;2023-11-25T06:24:06;8.88;;;1.42;;
62584;SDS011;48643;51.670;5.808;2023-11-25T06:26:34;5.25;;;1.58;;
62584;SDS011;48643;51.670;5.808;2023-11-25T06:29:01;5.45;;;1.38;;
62584;SDS011;48643;51.670;5.808;2023-11-25T06:31:29;7.90;;;1.83;;
62584;SDS011;48643;51.670;5.808;2023-11-25T06:33:58;3.90;;;1.10;;
62584;SDS011;48643;51.670;5.808;2023-11-25T06:36:26;2.75;;;1.23;;
62584;SDS011;48643;51.670;5.808;2023-11-25T06:38:53;6.35;;;1.92;;
62584;SDS011;48643;51.670;5.808;2023-11-25T06:41:20;4.85;;;1.50;;
62584;SDS011;48643;51.670;5.808;2023-11-25T06:43:51;4.70;;;1.40;;
62584;SDS011;48643;51.670;5.808;2023-11-25T06:46:18;5.47;;;1.50;;
62584;SDS011;48643;51.670;5.808;2023-11-25T06:48:45;5.82;;;1.60;;
62584;SDS011;48643;51.670;5.808;2023-11-25T06:51:12;4.55;;;1.60;;
62584;SDS011;48643;51.670;5.808;2023-11-25T06:53:39;6.65;;;1.27;;
62584;SDS011;48643;51.670;5.808;2023-11-25T06:56:09;6.05;;;1.40;;
62584;SDS011;48643;51.670;5.808;2023-11-25T06:58:39;4.35;;;1.45;;
62584;SDS011;48643;51.670;5.808;2023-11-25T07:01:06;5.20;;;1.30;;
62584;SDS011;48643;51.670;5.808;2023-11-25T07:03:33;4.75;;;1.40;;
62584;SDS011;48643;51.670;5.808;2023-11-25T07:06:01;5.45;;;1.52;;
62584;SDS011;48643;51.670;5.808;2023-11-25T07:08:31;5.80;;;1.40;;
62584;SDS011;48643;51.670;5.808;2023-11-25T07:10:58;4.78;;;1.35;;
62584;SDS011;48643;51.670;5.808;2023-11-25T07:13:28;4.80;;;1.50;;
62584;SDS011;48643;51.670;5.808;2023-11-25T07:15:55;8.82;;;1.80;;
62584;SDS011;48643;51.670;5.808;2023-11-25T07:18:22;8.95;;;1.73;;
62584;SDS011;48643;51.670;5.808;2023-11-25T07:20:50;5.13;;;1.48;;
62584;SDS011;48643;51.670;5.808;2023-11-25T07:23:21;3.85;;;1.42;;
62584;SDS011;48643;51.670;5.808;2023-11-25T07:25:48;7.13;;;1.90;;
62584;SDS011;48643;51.670;5.808;2023-11-25T07:28:16;5.90;;;1.45;;
62584;SDS011;48643;51.670;5.808;2023-11-25T07:30:43;8.07;;;1.45;;
62584;SDS011;48643;51.670;5.808;2023-11-25T07:33:11;3.90;;;1.40;;
62584;SDS011;48643;51.670;5.808;2023-11-25T07:35:38;7.47;;;1.55;;
62584;SDS011;48643;51.670;5.808;2023-11-25T07:38:05;4.95;;;1.40;;
62584;SDS011;48643;51.670;5.808;2023-11-25T07:40:33;7.75;;;1.60;;
62584;SDS011;48643;51.670;5.808;2023-11-25T07:43:00;8.15;;;1.60;;
62584;SDS011;48643;51.670;5.808;2023-11-25T07:45:27;7.28;;;1.60;;
62584;SDS011;48643;51.670;5.808;2023-11-25T07:47:54;5.20;;;1.50;;
62584;SDS011;48643;51.670;5.808;2023-11-25T07:50:22;4.85;;;1.38;;
62584;SDS011;48643;51.670;5.808;2023-11-25T07:52:49;9.38;;;1.85;;
62584;SDS011;48643;51.670;5.808;2023-11-25T07:55:17;13.63;;;1.98;;
62584;SDS011;48643;51.670;5.808;2023-11-25T07:57:44;7.72;;;1.50;;
62584;SDS011;48643;51.670;5.808;2023-11-25T08:00:14;7.07;;;1.67;;
62584;SDS011;48643;51.670;5.808;2023-11-25T08:02:46;6.43;;;1.63;;
62584;SDS011;48643;51.670;5.808;2023-11-25T08:05:16;7.70;;;1.58;;
62584;SDS011;48643;51.670;5.808;2023-11-25T08:07:50;9.20;;;1.50;;
62584;SDS011;48643;51.670;5.808;2023-11-25T08:10:19;7.90;;;1.45;;
62584;SDS011;48643;51.670;5.808;2023-11-25T08:12:46;9.75;;;1.60;;
62584;SDS011;48643;51.670;5.808;2023-11-25T08:15:13;11.68;;;2.20;;
62584;SDS011;48643;51.670;5.808;2023-11-25T08:17:41;5.60;;;1.55;;
62584;SDS011;48643;51.670;5.808;2023-11-25T08:20:09;6.80;;;1.50;;
62584;SDS011;48643;51.670;5.808;2023-11-25T08:22:37;5.88;;;1.80;;
62584;SDS011;48643;51.670;5.808;2023-11-25T08:25:08;5.28;;;1.42;;
62584;SDS011;48643;51.670;5.808;2023-11-25T08:27:36;9.15;;;1.80;;
62584;SDS011;48643;51.670;5.808;2023-11-25T08:30:04;8.38;;;1.45;;
62584;SDS011;48643;51.670;5.808;2023-11-25T08:32:41;9.10;;;1.88;;
62584;SDS011;48643;51.670;5.808;2023-11-25T08:35:08;5.18;;;1.40;;
62584;SDS011;48643;51.670;5.808;2023-11-25T08:37:36;6.43;;;1.65;;
62584;SDS011;48643;51.670;5.808;2023-11-25T08:40:06;6.68;;;1.90;;
62584;SDS011;48643;51.670;5.808;2023-11-25T08:42:33;6.20;;;1.80;;
62584;SDS011;48643;51.670;5.808;2023-11-25T08:45:01;5.35;;;1.42;;
62584;SDS011;48643;51.670;5.808;2023-11-25T08:47:28;9.40;;;1.70;;
62584;SDS011;48643;51.670;5.808;2023-11-25T08:49:56;2.92;;;1.45;;
62584;SDS011;48643;51.670;5.808;2023-11-25T08:52:23;3.45;;;1.40;;
62584;SDS011;48643;51.670;5.808;2023-11-25T08:54:52;5.97;;;1.60;;
62584;SDS011;48643;51.670;5.808;2023-11-25T08:57:19;4.70;;;1.50;;
62584;SDS011;48643;51.670;5.808;2023-11-25T08:59:48;5.78;;;1.45;;
62584;SDS011;48643;51.670;5.808;2023-11-25T09:02:15;8.10;;;1.50;;
62584;SDS011;48643;51.670;5.808;2023-11-25T09:04:49;3.65;;;1.30;;
62584;SDS011;48643;51.670;5.808;2023-11-25T09:07:32;4.45;;;1.25;;
62584;SDS011;48643;51.670;5.808;2023-11-25T09:10:01;9.20;;;1.30;;
62584;SDS011;48643;51.670;5.808;2023-11-25T09:12:31;1.75;;;0.90;;
62584;SDS011;48643;51.670;5.808;2023-11-25T09:14:58;5.72;;;1.40;;
62584;SDS011;48643;51.670;5.808;2023-11-25T09:17:26;4.22;;;1.40;;
62584;SDS011;48643;51.670;5.808;2023-11-25T09:19:53;2.97;;;1.17;;
62584;SDS011;48643;51.670;5.808;2023-11-25T09:22:21;5.13;;;1.38;;
62584;SDS011;48643;51.670;5.808;2023-11-25T09:24:48;5.45;;;1.60;;
62584;SDS011;48643;51.670;5.808;2023-11-25T09:27:14;5.93;;;1.52;;
62584;SDS011;48643;51.670;5.808;2023-11-25T09:29:42;3.17;;;1.17;;
62584;SDS011;48643;51.670;5.808;2023-11-25T09:32:09;4.00;;;1.13;;
62584;SDS011;48643;51.670;5.808;2023-11-25T09:34:37;5.32;;;1.40;;
62584;SDS011;48643;51.670;5.808;2023-11-25T09:37:05;5.78;;;1.30;;
62584;SDS011;48643;51.670;5.808;2023-11-25T09:39:34;3.87;;;1.23;;
62584;SDS011;48643;51.670;5.808;2023-11-25T09:42:01;7.07;;;1.40;;
62584;SDS011;48643;51.670;5.808;2023-11-25T09:44:29;5.68;;;1.38;;
62584;SDS011;48643;51.670;5.808;2023-11-25T09:46:56;3.45;;;1.20;;
62584;SDS011;48643;51.670;5.808;2023-11-25T09:49:23;2.53;;;1.27;;
62584;SDS011;48643;51.670;5.808;2023-11-25T09:51:50;4.65;;;1.85;;
62584;SDS011;48643;51.670;5.808;2023-11-25T09:54:21;3.95;;;1.50;;
62584;SDS011;48643;51.670;5.808;2023-11-25T09:56:48;5.30;;;1.50;;
62584;SDS011;48643;51.670;5.808;2023-11-25T09:59:18;4.93;;;1.42;;
62584;SDS011;48643;51.670;5.808;2023-11-25T10:01:45;3.53;;;1.38;;
62584;SDS011;48643;51.670;5.808;2023-11-25T10:04:12;3.58;;;1.40;;
62584;SDS011;48643;51.670;5.808;2023-11-25T10:06:40;5.55;;;1.30;;
62584;SDS011;48643;51.670;5.808;2023-11-25T10:09:08;5.60;;;1.50;;
62584;SDS011;48643;51.670;5.808;2023-11-25T10:11:38;8.05;;;1.70;;
62584;SDS011;48643;51.670;5.808;2023-11-25T10:14:11;4.57;;;1.42;;
62584;SDS011;48643;51.670;5.808;2023-11-25T10:16:43;4.13;;;1.45;;
62584;SDS011;48643;51.670;5.808;2023-11-25T10:19:22;5.73;;;1.40;;
62584;SDS011;48643;51.670;5.808;2023-11-25T10:21:50;4.43;;;1.45;;
62584;SDS011;48643;51.670;5.808;2023-11-25T10:24:18;4.35;;;1.60;;
62584;SDS011;48643;51.670;5.808;2023-11-25T10:26:48;4.60;;;1.40;;
62584;SDS011;48643;51.670;5.808;2023-11-25T10:29:20;5.03;;;1.47;;
62584;SDS011;48643;51.670;5.808;2023-11-25T10:31:56;4.30;;;1.55;;
62584;SDS011;48643;51.670;5.808;2023-11-25T10:34:23;5.07;;;1.38;;
62584;SDS011;48643;51.670;5.808;2023-11-25T10:36:52;4.63;;;1.45;;
62584;SDS011;48643;51.670;5.808;2023-11-25T10:39:19;4.20;;;1.50;;
62584;SDS011;48643;51.670;5.808;2023-11-25T10:41:51;4.47;;;1.42;;
62584;SDS011;48643;51.670;5.808;2023-11-25T10:44:19;3.90;;;1.50;;
62584;SDS011;48643;51.670;5.808;2023-11-25T10:46:46;7.93;;;1.80;;
62584;SDS011;48643;51.670;5.808;2023-11-25T10:49:14;4.88;;;1.42;;
62584;SDS011;48643;51.670;5.808;2023-11-25T10:51:42;7.20;;;1.50;;
62584;SDS011;48643;51.670;5.808;2023-11-25T10:54:12;5.50;;;1.67;;
62584;SDS011;48643;51.670;5.808;2023-11-25T10:56:39;3.90;;;1.40;;
62584;SDS011;48643;51.670;5.808;2023-11-25T10:59:07;5.65;;;1.40;;
62584;SDS011;48643;51.670;5.808;2023-11-25T11:01:40;3.78;;;1.40;;
62584;SDS011;48643;51.670;5.808;2023-11-25T11:04:13;4.15;;;1.35;;
62584;SDS011;48643;51.670;5.808;2023-11-25T11:06:54;4.97;;;1.58;;
62584;SDS011;48643;51.670;5.808;2023-11-25T11:09:25;3.10;;;1.08;;
62584;SDS011;48643;51.670;5.808;2023-11-25T11:11:54;4.10;;;1.57;;
62584;SDS011;48643;51.670;5.808;2023-11-25T11:14:28;6.53;;;1.45;;
62584;SDS011;48643;51.670;5.808;2023-11-25T11:19:40;2.63;;;1.35;;
62584;SDS011;48643;51.670;5.808;2023-11-25T11:22:11;4.35;;;1.45;;
62584;SDS011;48643;51.670;5.808;2023-11-25T11:24:48;4.03;;;1.42;;
62584;SDS011;48643;51.670;5.808;2023-11-25T11:33:40;5.90;;;1.75;;
62584;SDS011;48643;51.670;5.808;2023-11-25T11:36:07;4.22;;;1.50;;
62584;SDS011;48643;51.670;5.808;2023-11-25T11:38:45;5.60;;;1.58;;
62584;SDS011;48643;51.670;5.808;2023-11-25T11:46:30;7.03;;;2.25;;
62584;SDS011;48643;51.670;5.808;2023-11-25T11:48:59;5.88;;;1.48;;
62584;SDS011;48643;51.670;5.808;2023-11-25T11:51:27;4.40;;;1.73;;
62584;SDS011;48643;51.670;5.808;2023-11-25T11:57:00;7.95;;;1.70;;
62584;SDS011;48643;51.670;5.808;2023-11-25T12:02:28;6.03;;;1.65;;
62584;SDS011;48643;51.670;5.808;2023-11-25T12:05:00;6.53;;;3.10;;
62584;SDS011;48643;51.670;5.808;2023-11-25T12:07:28;5.63;;;2.60;;
62584;SDS011;48643;51.670;5.808;2023-11-25T12:09:56;7.93;;;2.88;;
62584;SDS011;48643;51.670;5.808;2023-11-25T12:12:24;4.70;;;2.38;;
62584;SDS011;48643;51.670;5.808;2023-11-25T12:14:51;6.13;;;3.00;;
62584;SDS011;48643;51.670;5.808;2023-11-25T12:17:20;5.55;;;2.67;;
62584;SDS011;48643;51.670;5.808;2023-11-25T12:19:48;7.43;;;3.50;;
62584;SDS011;48643;51.670;5.808;2023-11-25T12:22:18;4.35;;;3.30;;
62584;SDS011;48643;51.670;5.808;2023-11-25T12:24:45;6.97;;;3.30;;
62584;SDS011;48643;51.670;5.808;2023-11-25T12:27:12;6.28;;;2.33;;
62584;SDS011;48643;51.670;5.808;2023-11-25T12:29:39;6.10;;;1.65;;
62584;SDS011;48643;51.670;5.808;2023-11-25T12:32:07;7.30;;;1.88;;
62584;SDS011;48643;51.670;5.808;2023-11-25T12:34:34;6.85;;;1.67;;
62584;SDS011;48643;51.670;5.808;2023-11-25T12:37:01;5.60;;;1.83;;
62584;SDS011;48643;51.670;5.808;2023-11-25T12:39:28;6.10;;;2.10;;
62584;SDS011;48643;51.670;5.808;2023-11-25T12:41:55;6.10;;;2.55;;
62584;SDS011;48643;51.670;5.808;2023-11-25T12:44:22;6.82;;;2.00;;
62584;SDS011;48643;51.670;5.808;2023-11-25T12:46:59;11.40;;;2.20;;
62584;SDS011;48643;51.670;5.808;2023-11-25T12:49:28;5.38;;;2.00;;
62584;SDS011;48643;51.670;5.808;2023-11-25T12:51:56;6.00;;;1.70;;
62584;SDS011;48643;51.670;5.808;2023-11-25T12:54:23;8.45;;;1.98;;
62584;SDS011;48643;51.670;5.808;2023-11-25T12:56:50;5.20;;;1.80;;
62584;SDS011;48643;51.670;5.808;2023-11-25T12:59:26;5.32;;;1.45;;
62584;SDS011;48643;51.670;5.808;2023-11-25T13:02:06;3.70;;;1.55;;
62584;SDS011;48643;51.670;5.808;2023-11-25T13:04:44;5.43;;;1.55;;
62584;SDS011;48643;51.670;5.808;2023-11-25T13:07:32;5.80;;;1.83;;
62584;SDS011;48643;51.670;5.808;2023-11-25T13:10:00;5.78;;;1.63;;
62584;SDS011;48643;51.670;5.808;2023-11-25T13:12:30;5.97;;;1.85;;
62584;SDS011;48643;51.670;5.808;2023-11-25T13:14:58;7.25;;;2.00;;
62584;SDS011;48643;51.670;5.808;2023-11-25T13:17:24;6.30;;;2.10;;
62584;SDS011;48643;51.670;5.808;2023-11-25T13:19:52;6.65;;;1.98;;
62584;SDS011;48643;51.670;5.808;2023-11-25T13:22:19;6.63;;;1.92;;
62584;SDS011;48643;51.670;5.808;2023-11-25T13:24:46;7.15;;;2.40;;
62584;SDS011;48643;51.670;5.808;2023-11-25T13:27:13;5.63;;;1.88;;
62584;SDS011;48643;51.670;5.808;2023-11-25T13:29:40;9.50;;;2.35;;
62584;SDS011;48643;51.670;5.808;2023-11-25T13:32:11;8.43;;;2.03;;
62584;SDS011;48643;51.670;5.808;2023-11-25T13:34:40;7.50;;;2.08;;
62584;SDS011;48643;51.670;5.808;2023-11-25T13:37:07;9.50;;;1.98;;
62584;SDS011;48643;51.670;5.808;2023-11-25T13:39:34;6.18;;;2.10;;
62584;SDS011;48643;51.670;5.808;2023-11-25T13:42:02;5.22;;;1.80;;
62584;SDS011;48643;51.670;5.808;2023-11-25T13:44:31;9.50;;;2.30;;
62584;SDS011;48643;51.670;5.808;2023-11-25T13:46:58;5.50;;;2.08;;
62584;SDS011;48643;51.670;5.808;2023-11-25T13:49:25;6.75;;;2.30;;
62584;SDS011;48643;51.670;5.808;2023-11-25T13:51:58;6.78;;;1.98;;
62584;SDS011;48643;51.670;5.808;2023-11-25T13:54:26;7.28;;;2.15;;
62584;SDS011;48643;51.670;5.808;2023-11-25T13:56:55;7.37;;;2.00;;
62584;SDS011;48643;51.670;5.808;2023-11-25T13:59:22;8.02;;;2.15;;
62584;SDS011;48643;51.670;5.808;2023-11-25T14:01:49;6.50;;;2.10;;
62584;SDS011;48643;51.670;5.808;2023-11-25T14:04:17;9.65;;;2.28;;
62584;SDS011;48643;51.670;5.808;2023-11-25T14:06:49;4.97;;;1.92;;
62584;SDS011;48643;51.670;5.808;2023-11-25T14:09:16;6.25;;;2.10;;
62584;SDS011;48643;51.670;5.808;2023-11-25T14:11:44;7.88;;;1.98;;
62584;SDS011;48643;51.670;5.808;2023-11-25T14:14:11;8.07;;;1.70;;
62584;SDS011;48643;51.670;5.808;2023-11-25T14:16:38;4.82;;;1.70;;
62584;SDS011;48643;51.670;5.808;2023-11-25T14:19:06;5.72;;;2.10;;
62584;SDS011;48643;51.670;5.808;2023-11-25T14:21:33;7.75;;;1.83;;
62584;SDS011;48643;51.670;5.808;2023-11-25T14:24:00;5.60;;;1.80;;
62584;SDS011;48643;51.670;5.808;2023-11-25T14:26:27;5.63;;;1.90;;
62584;SDS011;48643;51.670;5.808;2023-11-25T14:28:54;9.60;;;1.98;;
62584;SDS011;48643;51.670;5.808;2023-11-25T14:31:22;9.30;;;2.15;;
62584;SDS011;48643;51.670;5.808;2023-11-25T14:33:49;10.55;;;2.10;;
62584;SDS011;48643;51.670;5.808;2023-11-25T14:36:16;6.85;;;2.13;;
62584;SDS011;48643;51.670;5.808;2023-11-25T14:38:43;8.55;;;2.28;;
62584;SDS011;48643;51.670;5.808;2023-11-25T14:41:12;6.65;;;1.95;;
62584;SDS011;48643;51.670;5.808;2023-11-25T14:43:42;6.25;;;2.00;;
62584;SDS011;48643;51.670;5.808;2023-11-25T14:46:10;7.20;;;2.03;;
62584;SDS011;48643;51.670;5.808;2023-11-25T14:48:38;6.90;;;2.00;;
62584;SDS011;48643;51.670;5.808;2023-11-25T14:51:05;8.13;;;2.00;;
62584;SDS011;48643;51.670;5.808;2023-11-25T14:53:33;4.30;;;1.77;;
62584;SDS011;48643;51.670;5.808;2023-11-25T14:56:02;7.43;;;1.90;;
62584;SDS011;48643;51.670;5.808;2023-11-25T14:58:29;9.10;;;1.98;;
62584;SDS011;48643;51.670;5.808;2023-11-25T15:00:55;5.88;;;2.03;;
62584;SDS011;48643;51.670;5.808;2023-11-25T15:03:23;6.05;;;1.83;;
62584;SDS011;48643;51.670;5.808;2023-11-25T15:05:50;7.18;;;1.88;;
62584;SDS011;48643;51.670;5.808;2023-11-25T15:08:17;10.52;;;2.53;;
62584;SDS011;48643;51.670;5.808;2023-11-25T15:10:44;10.15;;;2.17;;
62584;SDS011;48643;51.670;5.808;2023-11-25T15:13:13;6.95;;;1.77;;
62584;SDS011;48643;51.670;5.808;2023-11-25T15:15:41;7.65;;;2.17;;
62584;SDS011;48643;51.670;5.808;2023-11-25T15:18:08;6.25;;;1.67;;
62584;SDS011;48643;51.670;5.808;2023-11-25T15:20:36;7.38;;;2.00;;